This is the latest recevied weather packets stored in our database for station/object 9M2IBR-1. If no packets are shown the sender has not sent any weather packets the latest 10 day(s).
| Time | Temp. | Humidity | Pressure | Rain* | Wind** | Luminosity | Snow |
|---|---|---|---|---|---|---|---|
| 1777203328 | 28.33° C | 88% | 1006 hPa | 0 mm | - | 0 W/m² | - |
| 1777200932 | 30° C | 84% | 1005.7 hPa | 0 mm | - | 16 W/m² | - |
| 1777200328 | 30° C | 83% | 1005.5 hPa | 0 mm | - | 23 W/m² | - |
| 1777197337 | 31.11° C | 80% | 1005.4 hPa | 0 mm | - | 84 W/m² | - |
| 1777194968 | 31.67° C | 79% | 1005.7 hPa | 0 mm | - | 181 W/m² | - |
| 1777188925 | 32.78° C | 76% | 1006.3 hPa | 0 mm | - | 390 W/m² | - |
| 1777188323 | 32.22° C | 77% | 1006.4 hPa | 0 mm | - | 342 W/m² | - |
| 1777186516 | 32.78° C | 77% | 1006.9 hPa | 0 mm | - | 351 W/m² | - |
| 1777186271 | 32.78° C | 77% | 1006.9 hPa | 0 mm | - | 327 W/m² | - |
| 1777185638 | 32.78° C | 77% | 1007.1 hPa | 0 mm | - | 388 W/m² | - |
| 1777185030 | 32.78° C | 77% | 1007.2 hPa | 0 mm | - | 366 W/m² | - |
| 1777183525 | 33.33° C | 75% | 1007.8 hPa | 0 mm | - | 471 W/m² | - |
| 1777179324 | 32.78° C | 77% | 1009.1 hPa | 0 mm | - | 362 W/m² | - |
| 1777178720 | 32.78° C | 76% | 1009.3 hPa | 0 mm | - | 375 W/m² | - |
| 1777178418 | 32.78° C | 76% | 1009.4 hPa | 0 mm | - | 401 W/m² | - |
| 1777174844 | 31.11° C | 79% | 1010 hPa | 0 mm | - | 383 W/m² | - |
| 1777174522 | 31.67° C | 78% | 1010 hPa | 0 mm | - | 389 W/m² | - |
| 1777172423 | 31.67° C | 79% | 1010.2 hPa | 0 mm | - | 565 W/m² | - |
| 1777170027 | 30.56° C | 82% | 1010.4 hPa | 0 mm | - | 443 W/m² | - |
| 1777168527 | 30° C | 83% | 1010.3 hPa | 0 mm | - | 326 W/m² | - |
| 1777167621 | 30° C | 82% | 1010.3 hPa | 0 mm | - | 445 W/m² | - |
| 1777166730 | 28.89° C | 85% | 1010.1 hPa | 0 mm | - | 409 W/m² | - |
| 1777164918 | 26.67° C | 94% | 1009.6 hPa | 0 mm | - | 221 W/m² | - |
| 1777161022 | 24.44° C | 99% | 1009 hPa | 0 mm | - | 38 W/m² | - |
| 1777158017 | 23.89° C | 99% | 1008.6 hPa | 0 mm | - | 0 W/m² | - |
* Rain latest hour (hover to see other rain measurements)
** Current wind speed in m/s (hover to see current wind gust speed)